Time;durP1;ratioP1;P1;durP2;ratioP2;P2;SDS_P1;SDS_P2;PMS_P1;PMS_P2;Temp;Humidity;BMP_temperature;BMP_pressure;BME280_temperature;BME280_humidity;BME280_pressure;Samples;Min_cycle;Max_cycle;Signal;HPM_P1;HPM_P2
2022/05/31 00:02:20;;;;;;;;;;;13.80;93.10;;;;;;4304403;33;42997;-77
2022/05/31 00:04:47;;;;;;;;;;;13.80;93.10;;;;;;4317956;33;42332;-77
2022/05/31 00:07:15;;;;;;;;;;;13.80;93.10;;;;;;4317407;33;43468;-77
2022/05/31 00:09:42;;;;;;;;;;;13.80;93.00;;;;;;4317830;33;43900;-77
2022/05/31 00:12:09;;;;;;;;;;;13.80;93.00;;;;;;4317273;33;42682;-77
2022/05/31 00:14:37;;;;;;;;;;;13.80;93.00;;;;;;4317801;33;44232;-77
2022/05/31 00:17:04;;;;;;;;;;;13.80;93.00;;;;;;4317151;33;44634;-77
2022/05/31 00:19:34;;;;;;;;;;;13.80;93.10;;;;;;4317598;33;43526;-77
2022/05/31 00:22:16;;;;;;;;;;;13.80;92.90;;;;;;4304237;33;43057;-77
2022/05/31 00:24:44;;;;;;;;;;;13.80;93.00;;;;;;4317133;33;43820;-77
2022/05/31 00:27:12;;;;;;;;;;;13.80;93.00;;;;;;4304462;33;43894;-77
2022/05/31 00:29:39;;;;;;;;;;;13.80;92.90;;;;;;4317574;33;43169;-78
2022/05/31 00:32:08;;;;;;;;;;;13.80;92.80;;;;;;4317495;33;43025;-77
2022/05/31 00:34:37;;;;;;;;;;;13.80;93.00;;;;;;4316967;33;43172;-77
2022/05/31 00:37:04;;;;;;;;;;;13.80;92.90;;;;;;4317137;33;43960;-77
2022/05/31 00:39:31;;;;;;;;;;;13.80;92.80;;;;;;4317492;33;43897;-77
2022/05/31 00:42:02;;;;;;;;;;;13.70;92.80;;;;;;4304347;33;43289;-77
2022/05/31 00:44:29;;;;;;;;;;;13.70;92.90;;;;;;4317318;33;42896;-77
2022/05/31 00:46:59;;;;;;;;;;;13.80;93.20;;;;;;4316807;33;44720;-77
2022/05/31 00:49:40;;;;;;;;;;;13.80;93.20;;;;;;4303861;33;42553;-77
2022/05/31 00:52:18;;;;;;;;;;;13.80;93.20;;;;;;4317326;33;44378;-78
2022/05/31 00:54:49;;;;;;;;;;;13.80;93.00;;;;;;4317221;33;44291;-77
2022/05/31 00:57:16;;;;;;;;;;;13.70;93.20;;;;;;4316801;33;43517;-77
2022/05/31 00:59:46;;;;;;;;;;;13.70;93.20;;;;;;4317121;33;43183;-77
2022/05/31 01:02:15;;;;;;;;;;;13.70;93.20;;;;;;4316455;33;44859;-77
2022/05/31 01:04:45;;;;;;;;;;;13.70;93.20;;;;;;4316699;33;45969;-77
2022/05/31 01:07:12;;;;;;;;;;;13.80;93.10;;;;;;4303418;33;43450;-77
2022/05/31 01:09:39;;;;;;;;;;;13.70;93.10;;;;;;4316397;33;44982;-77
2022/05/31 01:12:07;;;;;;;;;;;13.70;92.90;;;;;;4303650;33;43297;-77
2022/05/31 01:14:35;;;;;;;;;;;13.80;93.20;;;;;;4316639;33;43309;-77
2022/05/31 01:17:04;;;;;;;;;;;13.80;93.10;;;;;;4303581;33;43794;-78
2022/05/31 01:22:17;;;;;;;;;;;13.70;92.90;;;;;;4316373;33;42325;-77
2022/05/31 01:24:56;;;;;;;;;;;13.70;92.80;;;;;;4316302;33;44131;-77
2022/05/31 01:27:36;;;;;;;;;;;13.70;93.10;;;;;;4316603;33;43487;-77
2022/05/31 01:30:05;;;;;;;;;;;13.70;93.20;;;;;;4303250;33;44200;-77
2022/05/31 01:32:35;;;;;;;;;;;13.70;93.30;;;;;;4302945;33;45259;-77
2022/05/31 01:35:04;;;;;;;;;;;13.70;93.20;;;;;;4316642;33;44706;-77
2022/05/31 01:37:52;;;;;;;;;;;13.70;93.20;;;;;;4316175;33;43301;-77
2022/05/31 01:40:38;;;;;;;;;;;13.70;93.30;;;;;;4316614;33;42624;-78
2022/05/31 01:43:05;;;;;;;;;;;13.70;93.20;;;;;;4303276;33;44661;-78
2022/05/31 01:45:37;;;;;;;;;;;13.70;93.40;;;;;;4303303;33;44305;-77
2022/05/31 01:48:05;;;;;;;;;;;13.70;93.40;;;;;;4303433;33;44224;-76
2022/05/31 01:50:32;;;;;;;;;;;13.70;93.20;;;;;;4315571;33;42966;-76
2022/05/31 01:53:00;;;;;;;;;;;13.70;93.30;;;;;;4316070;33;44192;-76
2022/05/31 01:55:29;;;;;;;;;;;13.70;93.30;;;;;;4316258;33;43050;-76
2022/05/31 01:57:57;;;;;;;;;;;13.70;93.40;;;;;;4315939;33;42335;-77
2022/05/31 02:00:24;;;;;;;;;;;13.70;93.40;;;;;;4316447;33;44226;-76
2022/05/31 02:02:52;;;;;;;;;;;13.70;93.40;;;;;;4302758;33;44248;-77
2022/05/31 02:05:20;;;;;;;;;;;13.70;93.40;;;;;;4316536;33;43205;-77
2022/05/31 02:07:57;;;;;;;;;;;13.70;93.30;;;;;;4316295;33;43475;-77
2022/05/31 02:10:25;;;;;;;;;;;13.60;93.30;;;;;;4316134;33;42655;-77
2022/05/31 02:12:53;;;;;;;;;;;13.60;93.30;;;;;;4316006;33;43878;-77
2022/05/31 02:15:21;;;;;;;;;;;13.60;93.30;;;;;;4316775;33;20045;-77
2022/05/31 02:17:48;;;;;;;;;;;13.70;93.50;;;;;;4302459;33;43426;-77
2022/05/31 02:20:15;;;;;;;;;;;13.60;93.50;;;;;;4302922;33;45415;-77
2022/05/31 02:22:42;;;;;;;;;;;13.60;93.40;;;;;;4302876;33;43687;-77
2022/05/31 02:25:10;;;;;;;;;;;13.60;93.60;;;;;;4315581;33;43294;-77
2022/05/31 02:27:37;;;;;;;;;;;13.60;93.60;;;;;;4316338;33;44067;-77
2022/05/31 02:30:04;;;;;;;;;;;13.60;93.60;;;;;;4315829;33;43946;-76
2022/05/31 02:32:31;;;;;;;;;;;13.60;93.60;;;;;;4302806;33;44106;-77
2022/05/31 02:34:58;;;;;;;;;;;13.60;93.60;;;;;;4315491;33;42658;-76
2022/05/31 02:37:25;;;;;;;;;;;13.60;93.60;;;;;;4302284;33;42764;-77
2022/05/31 02:39:52;;;;;;;;;;;13.60;93.70;;;;;;4315776;33;43377;-76
2022/05/31 02:42:19;;;;;;;;;;;13.60;93.70;;;;;;4315852;33;45955;-77
2022/05/31 02:44:47;;;;;;;;;;;13.60;93.80;;;;;;4303104;33;44249;-77
2022/05/31 02:47:14;;;;;;;;;;;13.60;93.80;;;;;;4315915;33;43776;-77
2022/05/31 02:49:44;;;;;;;;;;;13.60;93.80;;;;;;4315336;33;44725;-77
2022/05/31 02:52:11;;;;;;;;;;;13.50;93.80;;;;;;4315533;33;43228;-76
2022/05/31 02:54:39;;;;;;;;;;;13.60;93.70;;;;;;4302627;33;42916;-75
2022/05/31 02:57:06;;;;;;;;;;;13.50;93.70;;;;;;4302351;33;44264;-75
2022/05/31 02:59:33;;;;;;;;;;;13.50;94.20;;;;;;4315639;33;44817;-76
2022/05/31 03:02:00;;;;;;;;;;;13.50;94.60;;;;;;4303411;33;44166;-77
2022/05/31 03:04:28;;;;;;;;;;;13.50;94.60;;;;;;4318223;33;43243;-76
2022/05/31 03:07:01;;;;;;;;;;;13.50;94.70;;;;;;4318748;33;45433;-76
2022/05/31 03:09:29;;;;;;;;;;;13.50;94.70;;;;;;4305774;33;44229;-76
2022/05/31 03:11:58;;;;;;;;;;;13.40;94.90;;;;;;4318097;33;42260;-77
2022/05/31 03:14:49;;;;;;;;;;;13.50;94.90;;;;;;4305093;33;44208;-76
2022/05/31 03:17:25;;;;;;;;;;;13.40;95.10;;;;;;4318613;33;43956;-77
2022/05/31 03:19:57;;;;;;;;;;;13.40;95.10;;;;;;4305067;33;42970;-77
2022/05/31 03:22:26;;;;;;;;;;;13.40;95.20;;;;;;4305559;33;44213;-77
2022/05/31 03:24:59;;;;;;;;;;;13.40;95.20;;;;;;4305338;33;43973;-76
2022/05/31 03:27:27;;;;;;;;;;;13.40;95.40;;;;;;4317992;33;42562;-76
2022/05/31 03:29:55;;;;;;;;;;;13.40;95.50;;;;;;4317916;33;44210;-76
2022/05/31 03:32:22;;;;;;;;;;;13.40;96.00;;;;;;4304869;33;43021;-76
2022/05/31 03:34:50;;;;;;;;;;;13.40;95.60;;;;;;4318305;33;43854;-76
2022/05/31 03:37:18;;;;;;;;;;;13.40;95.90;;;;;;4318143;33;43623;-76
2022/05/31 03:39:45;;;;;;;;;;;13.40;95.70;;;;;;4317851;33;44227;-76
2022/05/31 03:42:12;;;;;;;;;;;13.40;95.90;;;;;;4318094;33;44450;-76
2022/05/31 03:44:39;;;;;;;;;;;13.40;95.80;;;;;;4317728;33;45751;-76
2022/05/31 03:47:06;;;;;;;;;;;13.40;95.80;;;;;;4318461;33;20407;-76
2022/05/31 03:49:34;;;;;;;;;;;13.40;95.90;;;;;;4304757;33;44146;-76
2022/05/31 03:52:03;;;;;;;;;;;13.40;95.90;;;;;;4317889;33;44014;-76
2022/05/31 03:54:30;;;;;;;;;;;13.40;96.00;;;;;;4317912;33;44659;-76
2022/05/31 03:56:57;;;;;;;;;;;13.40;96.00;;;;;;4317840;33;45122;-77
2022/05/31 03:59:24;;;;;;;;;;;13.40;96.10;;;;;;4317514;33;43225;-76
2022/05/31 04:01:52;;;;;;;;;;;13.40;96.10;;;;;;4304329;33;43189;-76
2022/05/31 04:04:19;;;;;;;;;;;13.40;96.30;;;;;;4304825;33;42842;-76
2022/05/31 04:06:46;;;;;;;;;;;13.40;96.60;;;;;;4317407;33;42751;-76
2022/05/31 04:09:14;;;;;;;;;;;13.40;96.70;;;;;;4317749;33;42355;-76
2022/05/31 04:11:41;;;;;;;;;;;13.40;96.90;;;;;;4304751;33;43970;-76
2022/05/31 04:14:08;;;;;;;;;;;13.40;97.00;;;;;;4317498;33;44241;-76
2022/05/31 04:16:35;;;;;;;;;;;13.40;96.90;;;;;;4317625;33;42502;-77
2022/05/31 04:19:03;;;;;;;;;;;13.30;97.00;;;;;;4304602;33;44287;-77
2022/05/31 04:21:31;;;;;;;;;;;13.30;97.10;;;;;;4317214;33;43204;-77
2022/05/31 04:23:58;;;;;;;;;;;13.30;96.90;;;;;;4304213;33;42778;-77
2022/05/31 04:26:26;;;;;;;;;;;13.30;97.00;;;;;;4317234;33;43755;-77
2022/05/31 04:28:56;;;;;;;;;;;13.20;96.90;;;;;;4317208;33;43910;-77
2022/05/31 04:31:24;;;;;;;;;;;13.30;96.90;;;;;;4317256;33;43771;-77
2022/05/31 04:33:56;;;;;;;;;;;13.20;97.10;;;;;;4304332;33;44171;-77
2022/05/31 04:36:27;;;;;;;;;;;13.20;97.20;;;;;;4304270;33;44219;-76
2022/05/31 04:38:58;;;;;;;;;;;13.20;97.30;;;;;;4304646;33;45605;-76
2022/05/31 04:41:36;;;;;;;;;;;13.20;97.20;;;;;;4304696;33;43561;-76
2022/05/31 04:44:15;;;;;;;;;;;13.20;97.30;;;;;;4303893;33;44215;-77
2022/05/31 04:46:43;;;;;;;;;;;13.20;97.30;;;;;;4303866;33;44267;-77
2022/05/31 04:49:19;;;;;;;;;;;13.20;97.10;;;;;;4304128;33;45837;-77
2022/05/31 04:51:49;;;;;;;;;;;13.20;97.20;;;;;;4303976;33;43235;-76
2022/05/31 04:54:17;;;;;;;;;;;13.20;97.60;;;;;;4317068;33;45174;-76
2022/05/31 04:56:47;;;;;;;;;;;13.20;97.30;;;;;;4303884;33;42509;-76
2022/05/31 04:59:22;;;;;;;;;;;13.20;97.70;;;;;;4316948;33;45006;-77
2022/05/31 05:02:08;;;;;;;;;;;13.20;98.20;;;;;;4303623;33;44342;-77
2022/05/31 05:05:02;;;;;;;;;;;13.20;97.80;;;;;;4317001;33;44527;-77
2022/05/31 05:07:35;;;;;;;;;;;13.20;97.60;;;;;;4304046;33;44188;-77
2022/05/31 05:10:05;;;;;;;;;;;13.20;97.60;;;;;;4316926;33;44873;-77
2022/05/31 05:12:33;;;;;;;;;;;13.20;97.60;;;;;;4304004;33;45902;-77
2022/05/31 05:15:00;;;;;;;;;;;13.20;97.70;;;;;;4316437;33;43067;-77
2022/05/31 05:17:27;;;;;;;;;;;13.30;98.00;;;;;;4316565;33;43048;-77
2022/05/31 05:19:57;;;;;;;;;;;13.20;97.70;;;;;;4316503;33;44169;-78
2022/05/31 05:22:25;;;;;;;;;;;13.30;97.90;;;;;;4303772;33;42783;-78
2022/05/31 05:24:52;;;;;;;;;;;13.30;97.80;;;;;;4316202;33;45049;-77
2022/05/31 05:27:31;;;;;;;;;;;13.20;97.90;;;;;;4303457;33;43575;-77
2022/05/31 05:32:49;;;;;;;;;;;13.20;98.20;;;;;;4316662;33;42625;-77
2022/05/31 05:35:22;;;;;;;;;;;13.20;98.10;;;;;;4303425;33;44385;-77
2022/05/31 05:37:57;;;;;;;;;;;13.20;98.60;;;;;;4316647;33;45449;-77
2022/05/31 05:40:33;;;;;;;;;;;13.20;98.20;;;;;;4303130;33;44328;-77
2022/05/31 05:43:14;;;;;;;;;;;13.20;98.20;;;;;;4303169;33;44222;-78
2022/05/31 05:45:42;;;;;;;;;;;13.20;98.10;;;;;;4303079;33;44876;-77
2022/05/31 05:48:20;;;;;;;;;;;13.30;98.20;;;;;;4302825;33;45794;-77
2022/05/31 05:50:55;;;;;;;;;;;13.30;98.20;;;;;;4316851;33;20408;-77
2022/05/31 05:53:36;;;;;;;;;;;13.20;98.00;;;;;;4303417;33;43484;-77
2022/05/31 05:56:14;;;;;;;;;;;13.30;98.00;;;;;;4302543;33;43337;-77
2022/05/31 05:58:55;;;;;;;;;;;13.30;97.90;;;;;;4302993;33;42766;-77
2022/05/31 06:01:47;;;;;;;;;;;13.20;97.90;;;;;;4302483;33;43275;-77
2022/05/31 06:04:55;;;;;;;;;;;13.20;97.90;;;;;;4304917;33;42326;-77
2022/05/31 06:07:40;;;;;;;;;;;13.30;98.30;;;;;;4302456;33;42934;-77
2022/05/31 06:10:41;;;;;;;;;;;13.30;98.60;;;;;;4302650;33;45040;-77
2022/05/31 06:13:21;;;;;;;;;;;13.20;98.40;;;;;;4303174;33;44212;-77
2022/05/31 06:15:59;;;;;;;;;;;13.30;98.30;;;;;;4315935;33;46013;-77
2022/05/31 06:18:42;;;;;;;;;;;13.30;98.50;;;;;;4303338;33;42057;-77
2022/05/31 06:21:23;;;;;;;;;;;13.20;98.80;;;;;;4302980;33;44650;-77
2022/05/31 06:24:01;;;;;;;;;;;13.20;98.90;;;;;;4316178;33;44651;-77
2022/05/31 06:26:44;;;;;;;;;;;13.30;98.80;;;;;;4316085;33;45997;-77
2022/05/31 06:29:26;;;;;;;;;;;13.30;99.10;;;;;;4316095;33;45034;-77
2022/05/31 06:32:05;;;;;;;;;;;13.30;99.00;;;;;;4316018;33;43335;-77
2022/05/31 06:34:47;;;;;;;;;;;13.30;98.90;;;;;;4302404;33;43170;-77
2022/05/31 06:37:29;;;;;;;;;;;13.30;99.10;;;;;;4302631;33;42895;-77
2022/05/31 06:40:02;;;;;;;;;;;13.30;99.40;;;;;;4315561;33;45815;-77
2022/05/31 06:42:40;;;;;;;;;;;13.30;99.10;;;;;;4302941;33;43891;-77
2022/05/31 06:45:12;;;;;;;;;;;13.30;99.10;;;;;;4315885;33;44297;-77
2022/05/31 06:47:45;;;;;;;;;;;13.30;99.00;;;;;;4315821;33;42678;-77
2022/05/31 06:50:15;;;;;;;;;;;13.30;99.00;;;;;;4302711;33;43891;-77
2022/05/31 06:58:15;;;;;;;;;;;13.30;98.50;;;;;;4315769;33;43542;-77
2022/05/31 07:00:42;;;;;;;;;;;13.30;98.70;;;;;;4315260;33;42448;-77
2022/05/31 07:03:11;;;;;;;;;;;13.40;98.70;;;;;;4314992;33;44569;-77
2022/05/31 07:05:39;;;;;;;;;;;13.30;98.70;;;;;;4302248;33;44088;-77
2022/05/31 07:08:17;;;;;;;;;;;13.30;98.70;;;;;;4302813;33;42922;-77
2022/05/31 07:10:55;;;;;;;;;;;13.40;98.60;;;;;;4302666;33;45051;-77
2022/05/31 07:13:28;;;;;;;;;;;13.30;98.60;;;;;;4315774;33;44207;-77
2022/05/31 07:16:09;;;;;;;;;;;13.40;98.80;;;;;;4302928;33;44731;-77
2022/05/31 07:18:40;;;;;;;;;;;13.40;98.80;;;;;;4315254;33;42716;-77
2022/05/31 07:21:15;;;;;;;;;;;13.40;98.60;;;;;;4302186;33;44132;-77
2022/05/31 07:23:45;;;;;;;;;;;13.40;98.80;;;;;;4303268;33;20012;-77
2022/05/31 07:26:20;;;;;;;;;;;13.40;98.50;;;;;;4315185;33;43228;-77
2022/05/31 07:29:03;;;;;;;;;;;13.40;98.50;;;;;;4303700;33;44358;-77
2022/05/31 07:31:36;;;;;;;;;;;13.40;98.20;;;;;;4302957;33;44644;-77
2022/05/31 07:34:30;;;;;;;;;;;13.40;98.00;;;;;;4315621;33;42768;-77
2022/05/31 07:37:05;;;;;;;;;;;13.40;97.80;;;;;;4315770;33;43478;-77
2022/05/31 07:39:43;;;;;;;;;;;13.40;97.70;;;;;;4315448;33;43311;-78
2022/05/31 07:42:21;;;;;;;;;;;13.40;97.80;;;;;;4315681;33;43431;-77
2022/05/31 07:44:51;;;;;;;;;;;13.40;97.60;;;;;;4302458;33;43553;-77
2022/05/31 07:47:21;;;;;;;;;;;13.40;97.30;;;;;;4302383;33;44158;-77
2022/05/31 07:50:00;;;;;;;;;;;13.40;97.20;;;;;;4305057;33;43805;-77
2022/05/31 07:52:35;;;;;;;;;;;13.40;97.10;;;;;;4304668;33;46035;-77
2022/05/31 07:55:16;;;;;;;;;;;13.40;97.50;;;;;;4305682;33;20037;-77
2022/05/31 08:01:05;;;;;;;;;;;13.40;97.10;;;;;;4272359;33;43733;-77
2022/05/31 08:03:40;;;;;;;;;;;13.40;97.00;;;;;;4300918;33;46109;-78
2022/05/31 08:06:16;;;;;;;;;;;13.40;97.10;;;;;;4317880;33;42661;-77
2022/05/31 08:08:54;;;;;;;;;;;13.40;97.10;;;;;;4304346;33;43291;-76
2022/05/31 08:11:35;;;;;;;;;;;13.50;97.00;;;;;;4304576;33;44374;-77
2022/05/31 08:14:13;;;;;;;;;;;13.50;97.00;;;;;;4317829;33;43590;-77
2022/05/31 08:16:40;;;;;;;;;;;13.50;97.00;;;;;;4317688;33;43840;-77
2022/05/31 08:19:08;;;;;;;;;;;13.50;97.00;;;;;;4317254;33;44271;-77
2022/05/31 08:21:46;;;;;;;;;;;13.50;96.80;;;;;;4304666;33;43289;-76
2022/05/31 08:24:21;;;;;;;;;;;13.50;96.80;;;;;;4304739;33;44429;-76
2022/05/31 08:27:12;;;;;;;;;;;13.50;96.90;;;;;;4317730;33;44219;-76
2022/05/31 08:29:45;;;;;;;;;;;13.50;96.70;;;;;;4304000;33;42606;-77
2022/05/31 08:32:20;;;;;;;;;;;13.50;96.80;;;;;;4304841;33;43756;-76
2022/05/31 08:34:56;;;;;;;;;;;13.50;96.80;;;;;;4304002;33;42858;-76
2022/05/31 08:37:26;;;;;;;;;;;13.50;96.80;;;;;;4304340;33;42910;-76
2022/05/31 08:40:04;;;;;;;;;;;13.50;96.80;;;;;;4303944;33;43470;-76
2022/05/31 08:42:54;;;;;;;;;;;13.50;96.80;;;;;;4304283;33;46129;-76
2022/05/31 08:45:37;;;;;;;;;;;13.50;96.90;;;;;;4317032;33;44911;-77
2022/05/31 08:48:04;;;;;;;;;;;13.60;96.90;;;;;;4317635;33;43478;-77
2022/05/31 08:53:39;;;;;;;;;;;13.60;96.90;;;;;;4317140;33;44516;-76
2022/05/31 08:59:23;;;;;;;;;;;13.60;97.10;;;;;;4315816;33;42313;-76
2022/05/31 09:02:00;;;;;;;;;;;13.60;97.00;;;;;;4316878;33;45364;-76
2022/05/31 09:04:34;;;;;;;;;;;13.60;96.90;;;;;;4317125;33;44584;-79
2022/05/31 09:07:06;;;;;;;;;;;13.60;96.90;;;;;;4303810;33;43835;-79
2022/05/31 09:09:51;;;;;;;;;;;13.70;96.90;;;;;;4303930;33;46025;-79
2022/05/31 09:12:40;;;;;;;;;;;13.70;96.80;;;;;;4303773;33;45441;-79
2022/05/31 09:15:25;;;;;;;;;;;13.70;96.80;;;;;;4316986;33;44500;-79
2022/05/31 09:18:16;;;;;;;;;;;13.70;97.00;;;;;;4303756;33;43357;-79
2022/05/31 09:20:50;;;;;;;;;;;13.70;96.90;;;;;;4303710;33;44368;-78
2022/05/31 09:23:28;;;;;;;;;;;13.80;97.00;;;;;;4303298;33;42411;-79
2022/05/31 09:26:24;;;;;;;;;;;13.80;96.90;;;;;;4303590;33;42526;-79
2022/05/31 09:29:02;;;;;;;;;;;13.80;96.80;;;;;;4272298;33;26606;-79
2022/05/31 09:32:01;;;;;;;;;;;13.80;96.70;;;;;;4303800;33;43394;-79
2022/05/31 09:34:45;;;;;;;;;;;13.80;96.70;;;;;;4316004;33;45791;-80
2022/05/31 09:37:22;;;;;;;;;;;13.80;96.60;;;;;;4303702;33;45461;-78
2022/05/31 09:40:08;;;;;;;;;;;13.80;96.40;;;;;;4303406;33;44741;-80
2022/05/31 09:42:43;;;;;;;;;;;13.80;96.30;;;;;;4316129;33;44362;-79
2022/05/31 09:45:13;;;;;;;;;;;13.80;96.20;;;;;;4316610;33;45148;-79
2022/05/31 09:47:47;;;;;;;;;;;13.90;96.10;;;;;;4302988;33;43169;-79
2022/05/31 09:50:22;;;;;;;;;;;13.90;96.30;;;;;;4316398;33;43323;-78
2022/05/31 09:52:56;;;;;;;;;;;13.90;96.20;;;;;;4303482;33;45678;-80
2022/05/31 09:58:27;;;;;;;;;;;13.90;96.10;;;;;;4316592;33;43829;-79
2022/05/31 10:01:13;;;;;;;;;;;13.90;96.10;;;;;;4303246;33;44004;-80
2022/05/31 10:03:44;;;;;;;;;;;13.90;96.10;;;;;;4303185;33;44788;-79
2022/05/31 10:06:17;;;;;;;;;;;13.90;96.20;;;;;;4303410;33;44721;-79
2022/05/31 10:08:49;;;;;;;;;;;14.00;96.20;;;;;;4315866;33;43611;-79
2022/05/31 10:11:30;;;;;;;;;;;14.00;96.30;;;;;;4302346;33;43109;-80
2022/05/31 10:14:04;;;;;;;;;;;14.00;96.50;;;;;;4302623;33;43812;-80
2022/05/31 10:16:42;;;;;;;;;;;14.00;96.40;;;;;;4316103;33;43519;-80
2022/05/31 10:19:23;;;;;;;;;;;14.10;96.40;;;;;;4302596;33;44189;-80
2022/05/31 10:21:53;;;;;;;;;;;14.10;96.40;;;;;;4302723;33;42569;-81
2022/05/31 10:24:30;;;;;;;;;;;14.10;96.00;;;;;;4302608;33;43769;-79
2022/05/31 10:27:11;;;;;;;;;;;14.20;95.60;;;;;;4303210;33;44189;-79
2022/05/31 10:29:50;;;;;;;;;;;14.10;95.30;;;;;;4302802;33;45101;-79
2022/05/31 10:32:35;;;;;;;;;;;14.20;94.90;;;;;;4303445;33;20057;-80
2022/05/31 10:35:24;;;;;;;;;;;14.10;94.90;;;;;;4315528;33;43531;-80
2022/05/31 10:37:58;;;;;;;;;;;14.20;94.80;;;;;;4316007;33;45347;-80
2022/05/31 10:40:33;;;;;;;;;;;14.30;95.10;;;;;;4302786;33;45779;-80
2022/05/31 10:43:11;;;;;;;;;;;14.20;95.20;;;;;;4316158;33;44143;-80
2022/05/31 10:45:43;;;;;;;;;;;14.30;95.40;;;;;;4303161;33;45872;-79
2022/05/31 10:48:16;;;;;;;;;;;14.30;95.30;;;;;;4315875;33;46056;-79
2022/05/31 10:50:55;;;;;;;;;;;14.30;95.40;;;;;;4315933;33;43722;-80
2022/05/31 10:53:33;;;;;;;;;;;14.30;95.00;;;;;;4316142;33;45539;-81
2022/05/31 10:56:15;;;;;;;;;;;14.40;94.90;;;;;;4302246;33;46172;-80
2022/05/31 10:58:54;;;;;;;;;;;14.40;95.10;;;;;;4302812;33;44945;-79
2022/05/31 11:01:27;;;;;;;;;;;14.40;95.10;;;;;;4315602;33;42814;-80
2022/05/31 11:04:14;;;;;;;;;;;14.50;95.10;;;;;;4303802;33;19998;-80
2022/05/31 11:06:52;;;;;;;;;;;14.50;95.30;;;;;;4315192;33;43486;-80
2022/05/31 11:12:32;;;;;;;;;;;14.50;94.90;;;;;;4315857;33;45146;-80
2022/05/31 11:15:05;;;;;;;;;;;14.50;94.40;;;;;;4302454;33;44754;-81
2022/05/31 11:17:52;;;;;;;;;;;14.50;93.80;;;;;;4302551;33;44262;-79
2022/05/31 11:20:31;;;;;;;;;;;14.50;93.20;;;;;;4315169;33;43790;-80
2022/05/31 11:23:12;;;;;;;;;;;14.50;93.50;;;;;;4303623;33;45927;-80
2022/05/31 11:25:51;;;;;;;;;;;14.50;93.10;;;;;;4318524;33;45226;-79
2022/05/31 11:28:41;;;;;;;;;;;14.60;92.80;;;;;;4307540;33;46110;-81
2022/05/31 11:31:33;;;;;;;;;;;14.60;92.60;;;;;;4304700;33;44194;-79
2022/05/31 11:34:15;;;;;;;;;;;14.60;92.60;;;;;;4319221;33;20359;-79
2022/05/31 11:36:54;;;;;;;;;;;14.60;92.10;;;;;;4318614;33;43820;-80
2022/05/31 11:39:47;;;;;;;;;;;14.60;92.30;;;;;;4304654;33;44297;-80
2022/05/31 11:42:17;;;;;;;;;;;14.70;92.40;;;;;;4318415;33;45838;-80
2022/05/31 11:44:56;;;;;;;;;;;14.70;92.60;;;;;;4305496;33;44728;-79
2022/05/31 11:47:42;;;;;;;;;;;14.70;92.60;;;;;;4304848;33;43887;-81
2022/05/31 11:50:21;;;;;;;;;;;14.70;92.20;;;;;;4304946;33;43571;-79
2022/05/31 11:53:07;;;;;;;;;;;14.70;91.70;;;;;;4305162;33;43288;-79
2022/05/31 11:55:51;;;;;;;;;;;14.70;91.70;;;;;;4304694;33;42774;-80
2022/05/31 11:58:27;;;;;;;;;;;14.80;92.20;;;;;;4305004;33;45521;-78
2022/05/31 12:01:03;;;;;;;;;;;14.80;91.40;;;;;;4305058;33;45084;-80
2022/05/31 12:03:37;;;;;;;;;;;14.80;91.00;;;;;;4317794;33;45080;-79
2022/05/31 12:06:07;;;;;;;;;;;14.80;90.90;;;;;;4304999;33;44350;-80
2022/05/31 12:08:41;;;;;;;;;;;14.80;90.60;;;;;;4317541;33;45152;-79
2022/05/31 12:11:21;;;;;;;;;;;14.80;90.70;;;;;;4304724;33;44381;-80
2022/05/31 12:13:52;;;;;;;;;;;14.90;90.70;;;;;;4304708;33;43372;-79
2022/05/31 12:16:23;;;;;;;;;;;14.80;90.80;;;;;;4304871;33;43299;-79
2022/05/31 12:18:55;;;;;;;;;;;14.80;91.20;;;;;;4304626;33;45347;-79
2022/05/31 12:21:43;;;;;;;;;;;14.90;90.70;;;;;;4304206;33;43805;-78
2022/05/31 12:24:14;;;;;;;;;;;14.80;90.80;;;;;;4304350;33;44398;-80
2022/05/31 12:26:50;;;;;;;;;;;14.90;90.90;;;;;;4304439;33;44428;-80
2022/05/31 12:29:23;;;;;;;;;;;14.90;91.00;;;;;;4317727;33;43893;-80
2022/05/31 12:32:12;;;;;;;;;;;14.90;90.80;;;;;;4304758;33;43257;-80
2022/05/31 12:34:42;;;;;;;;;;;14.90;90.80;;;;;;4304145;33;43281;-80
2022/05/31 12:37:14;;;;;;;;;;;14.90;90.00;;;;;;4304648;33;20002;-79
2022/05/31 12:39:44;;;;;;;;;;;15.00;90.50;;;;;;4316763;33;43756;-80
2022/05/31 12:42:36;;;;;;;;;;;15.00;90.70;;;;;;4303588;33;44111;-80
2022/05/31 12:45:19;;;;;;;;;;;15.00;90.30;;;;;;4303841;33;43934;-78
2022/05/31 12:47:56;;;;;;;;;;;15.10;90.70;;;;;;4303936;33;44030;-80
2022/05/31 12:50:42;;;;;;;;;;;15.10;89.90;;;;;;4304128;33;44248;-78
2022/05/31 12:55:47;;;;;;;;;;;15.10;88.40;;;;;;4316616;33;43904;-78
2022/05/31 12:58:30;;;;;;;;;;;15.20;87.40;;;;;;4304028;33;45029;-78
2022/05/31 13:00:58;;;;;;;;;;;15.20;89.40;;;;;;4303541;33;42375;-78
2022/05/31 13:03:34;;;;;;;;;;;15.20;89.70;;;;;;4303689;33;43273;-78
2022/05/31 13:06:09;;;;;;;;;;;15.20;89.30;;;;;;4304283;33;44194;-78
2022/05/31 13:08:59;;;;;;;;;;;15.20;89.10;;;;;;4305083;33;20003;-78
2022/05/31 13:20:13;;;;;;;;;;;15.30;89.10;;;;;;4316749;33;45995;-77
2022/05/31 13:22:49;;;;;;;;;;;15.40;89.70;;;;;;4303762;33;44732;-78
2022/05/31 13:25:19;;;;;;;;;;;15.40;88.80;;;;;;4303701;33;43600;-78
2022/05/31 13:27:57;;;;;;;;;;;15.40;89.00;;;;;;4303469;33;44740;-78
2022/05/31 13:30:28;;;;;;;;;;;15.50;89.40;;;;;;4303216;33;44035;-77
2022/05/31 13:32:59;;;;;;;;;;;15.50;88.40;;;;;;4303580;33;44612;-78
2022/05/31 13:35:27;;;;;;;;;;;15.50;87.40;;;;;;4316115;33;44930;-79
2022/05/31 13:37:57;;;;;;;;;;;15.50;88.00;;;;;;4303350;33;43332;-78
2022/05/31 13:40:48;;;;;;;;;;;15.50;88.40;;;;;;4303848;33;20398;-79
2022/05/31 13:43:28;;;;;;;;;;;15.50;88.00;;;;;;4316560;33;44260;-78
2022/05/31 13:46:03;;;;;;;;;;;15.50;88.20;;;;;;4302752;33;43848;-80
2022/05/31 13:48:41;;;;;;;;;;;15.50;88.60;;;;;;4303353;33;45792;-79
2022/05/31 13:51:23;;;;;;;;;;;15.50;89.30;;;;;;4303383;33;44772;-80
2022/05/31 13:54:03;;;;;;;;;;;15.50;88.40;;;;;;4316382;33;43237;-80
2022/05/31 13:56:37;;;;;;;;;;;15.60;88.20;;;;;;4302957;33;43338;-78
2022/05/31 13:59:11;;;;;;;;;;;15.50;89.90;;;;;;4316310;33;45227;-78
2022/05/31 14:01:40;;;;;;;;;;;15.60;90.00;;;;;;4303067;33;43181;-81
2022/05/31 14:04:18;;;;;;;;;;;15.50;89.90;;;;;;4302931;33;43880;-80
2022/05/31 14:06:53;;;;;;;;;;;15.60;89.80;;;;;;4303245;33;45120;-79
2022/05/31 14:09:35;;;;;;;;;;;15.60;90.10;;;;;;4303087;33;46039;-80
2022/05/31 14:12:23;;;;;;;;;;;15.60;90.20;;;;;;4303503;33;19998;-79
2022/05/31 14:14:53;;;;;;;;;;;15.60;90.10;;;;;;4302887;33;43351;-79
2022/05/31 14:17:41;;;;;;;;;;;15.60;89.60;;;;;;4303271;33;44245;-78
2022/05/31 14:20:21;;;;;;;;;;;15.60;90.10;;;;;;4302602;33;44217;-79
2022/05/31 14:22:55;;;;;;;;;;;15.60;90.20;;;;;;4303292;33;43906;-78
2022/05/31 14:25:24;;;;;;;;;;;15.70;90.50;;;;;;4316461;33;43844;-78
2022/05/31 14:27:54;;;;;;;;;;;15.70;90.20;;;;;;4303084;33;43832;-79
2022/05/31 14:30:34;;;;;;;;;;;15.70;90.20;;;;;;4302902;33;42912;-78
2022/05/31 14:33:03;;;;;;;;;;;15.70;90.20;;;;;;4316099;33;45664;-79
2022/05/31 14:35:39;;;;;;;;;;;15.70;90.00;;;;;;4302423;33;45039;-79
2022/05/31 14:38:22;;;;;;;;;;;15.80;90.00;;;;;;4316056;33;44099;-78
2022/05/31 14:40:56;;;;;;;;;;;15.80;90.00;;;;;;4315739;33;45136;-79
2022/05/31 14:43:34;;;;;;;;;;;15.80;88.80;;;;;;4302923;33;45425;-79
2022/05/31 14:46:06;;;;;;;;;;;15.90;89.00;;;;;;4303094;33;44328;-79
2022/05/31 14:48:36;;;;;;;;;;;15.90;89.40;;;;;;4302819;33;46375;-78
2022/05/31 14:51:09;;;;;;;;;;;16.00;88.20;;;;;;4315920;33;45750;-79
2022/05/31 14:53:46;;;;;;;;;;;16.00;88.00;;;;;;4315735;33;45022;-80
2022/05/31 14:56:32;;;;;;;;;;;16.00;87.70;;;;;;4316093;33;44781;-80
2022/05/31 14:59:01;;;;;;;;;;;16.00;88.50;;;;;;4305704;33;44820;-79
2022/05/31 15:01:47;;;;;;;;;;;16.00;89.50;;;;;;4305208;33;45183;-80
2022/05/31 15:04:38;;;;;;;;;;;16.00;88.90;;;;;;4305547;33;45821;-80
2022/05/31 15:07:16;;;;;;;;;;;16.10;88.30;;;;;;4318881;33;43881;-78
2022/05/31 15:10:41;;;;;;;;;;;16.10;89.00;;;;;;4307517;33;44982;-79
2022/05/31 15:19:00;;;;;;;;;;;16.10;87.90;;;;;;4318844;33;45323;-81
2022/05/31 15:21:38;;;;;;;;;;;16.10;88.20;;;;;;4305426;33;43261;-81
2022/05/31 15:24:25;;;;;;;;;;;16.20;88.00;;;;;;4305162;33;42922;-80
2022/05/31 15:27:01;;;;;;;;;;;16.20;87.60;;;;;;4304779;33;42951;-81
2022/05/31 15:29:30;;;;;;;;;;;16.10;89.00;;;;;;4305315;33;45182;-80
2022/05/31 15:32:07;;;;;;;;;;;16.20;89.50;;;;;;4318224;33;43462;-80
2022/05/31 15:34:40;;;;;;;;;;;16.20;89.20;;;;;;4318316;33;44473;-81
2022/05/31 15:37:17;;;;;;;;;;;16.10;88.60;;;;;;4305254;33;43037;-81
2022/05/31 15:39:47;;;;;;;;;;;16.20;89.40;;;;;;4318173;33;42349;-81
2022/05/31 15:42:16;;;;;;;;;;;16.20;89.40;;;;;;4304844;33;42705;-82
2022/05/31 15:44:43;;;;;;;;;;;16.20;90.00;;;;;;4305085;33;43032;-81